McAlester, OK

2:33 AM CDT on August 28, 2014 (GMT -0500)
Kinkead Hills | Change Station
CLOSE
Current Station
Personal Weather Station
Location: McAlester, OK
Elevation: 808 ft
Nearby Weather Stations

Elev 808 ft 34.90 °N, 95.73 °W | Updated 5 minutes ago

Mostly Cloudy
Mostly Cloudy
71.7 °F
Feels Like 71 °F
N
0.0
Wind Variable Wind from ENE

Today
High -- | Low -- °F
--% Chance of Precip.
Yesterday
High -- | Low -- °F
Precip. -- in
6:53 AM 7:55 PM
Waxing Crescent, 7% visible
Pressure 29.98 in
Visibility 10.0 miles
Clouds Scattered Clouds 10000 ft
Mostly Cloudy 12000 ft
Heat Index 71 °F
Dew Point 67 °F
Humidity 85%
Rainfall 0.00 in
Snow Depth Not available.
UV 0 out of 12
Pollen 10.20 out of 12
Air Quality Not available.
Flu Activity Not available.
METAR KMLC 280653Z AUTO 00000KT 10SM SCT100 BKN120 23/20 A3001 RMK AO2 SLP152 T02330200

More Conditions Fewer Conditions

Pressure 29.98 in
Visibility 10.0 miles
Clouds Scattered Clouds 10000 ft
Mostly Cloudy 12000 ft
Heat Index 71 °F
Dew Point 67 °F
Humidity 85%
Rainfall 0.00 in
Snow Depth Not available.
UV 0 out of 12
Pollen 10.20 out of 12
Air Quality Not available.
Flu Activity Not available.
METAR KMLC 280653Z AUTO 00000KT 10SM SCT100 BKN120 23/20 A3001 RMK AO2 SLP152 T02330200

More Conditions Fewer Conditions

10-Day Weather Forecast

Almanac

Astronomy

Aug. 28, 2014 Rise Set
Actual Time 6:53 AM CDT 7:55 PM CDT
Civil Twilight 6:27 AM CDT 8:21 PM CDT
Nautical Twilight 5:56 AM CDT 8:51 PM CDT
Astronomical Twilight 5:24 AM CDT 9:23 PM CDT
Moon 9:38 AM CDT 9:29 PM CDT
Length of Visible Light 13h 54m
Length of Day
13h 02m
Tomorrow will be 2m 4s shorter.
Waxing Crescent, 7% of the Moon is Illuminated
Today
Waxing Crescent
Sep 2
First Quarter
Sep 8
Full
Sep 15
Last Quarter
Sep 24
New

Today's Extremes

State Highs State Lows

Community

WunderPhotos

Upload Photos

1,747,912 photos uploaded!

Nearby

Snow Depth

Station Depth Elevation
No new snow has been reported.

Earthquake Activity

City Distance Mag. Time & Date
Stillwater, Oklahoma 113 miles 3.1 10:44 AM CDT
2014-08-27
Guthrie, Oklahoma 110 miles 3.2 11:05 AM CDT
2014-08-26
Perry, Oklahoma 131 miles 2.5 8:07 AM CDT
2014-08-26
Perry, Oklahoma 118 miles 3.2 4:41 PM CDT
2014-08-25
Minimum magnitude displayed is 2.5.

Coastal Water Temperatures

Place Temperature
No Stations Reporting

Nearby Weather Stations